Time;durP1;ratioP1;P1;durP2;ratioP2;P2;SDS_P1;SDS_P2;PMS_P1;PMS_P2;Temp;Humidity;BMP_temperature;BMP_pressure;BME280_temperature;BME280_humidity;BME280_pressure;Samples;Min_cycle;Max_cycle;Signal;HPM_P1;HPM_P2
2022/10/07 00:00:50;;;;;;;10.82;3.40;;;;;;;8.02;92.71;102556.16;4894573;29;20039;-70
2022/10/07 00:03:17;;;;;;;15.00;3.53;;;;;;;8.00;93.02;102551.06;4890071;29;20047;-70
2022/10/07 00:05:42;;;;;;;12.98;3.20;;;;;;;7.96;92.70;102557.38;4902604;29;20036;-71
2022/10/07 00:08:08;;;;;;;12.55;3.65;;;;;;;7.93;92.85;102554.97;4907279;29;20524;-70
2022/10/07 00:10:42;;;;;;;10.20;3.63;;;;;;;7.87;93.11;102547.59;4901138;29;20032;-71
2022/10/07 00:13:08;;;;;;;14.80;4.50;;;;;;;7.86;93.48;102551.13;4906257;29;20036;-70
2022/10/07 00:15:34;;;;;;;16.38;3.70;;;;;;;7.83;93.54;102557.28;4905276;29;20036;-71
2022/10/07 00:18:00;;;;;;;14.18;3.90;;;;;;;7.79;93.52;102548.09;4895132;29;20131;-70
2022/10/07 00:20:26;;;;;;;19.98;3.60;;;;;;;7.75;93.46;102549.19;4909894;29;20047;-71
2022/10/07 00:22:52;;;;;;;16.88;4.53;;;;;;;7.72;93.47;102545.06;4888515;29;20093;-71
2022/10/07 00:25:18;;;;;;;18.17;4.00;;;;;;;7.71;93.64;102543.41;4903509;29;20433;-71
2022/10/07 00:27:43;;;;;;;11.75;3.60;;;;;;;7.71;93.94;102535.66;4889818;29;20036;-71
2022/10/07 00:30:09;;;;;;;11.38;3.47;;;;;;;7.68;93.69;102529.84;4889324;29;20044;-71
2022/10/07 00:32:35;;;;;;;19.98;4.55;;;;;;;7.67;93.91;102536.75;4890364;29;20064;-70
2022/10/07 00:35:00;;;;;;;11.73;3.72;;;;;;;7.66;93.90;102536.84;4888424;29;20040;-70
2022/10/07 00:37:26;;;;;;;13.73;4.03;;;;;;;7.65;93.98;102530.03;4891722;29;20028;-71
2022/10/07 00:39:51;;;;;;;12.80;4.30;;;;;;;7.64;94.00;102530.97;4892547;29;20044;-70
2022/10/07 00:42:17;;;;;;;22.10;4.70;;;;;;;7.64;93.86;102530.97;4903392;29;20044;-71
2022/10/07 00:44:43;;;;;;;20.30;3.92;;;;;;;7.62;93.81;102530.22;4884726;29;20039;-70
2022/10/07 00:47:29;;;;;;;12.43;3.58;;;;;;;7.57;94.13;102533.94;4889370;29;20050;-71
2022/10/07 00:50:38;;;;;;;14.80;3.53;;;;;;;7.57;94.43;102523.59;4888475;29;20047;-70
2022/10/07 00:53:04;;;;;;;11.05;3.13;;;;;;;7.56;93.96;102516.75;4890625;29;20044;-70
2022/10/07 00:55:30;;;;;;;13.93;3.70;;;;;;;7.55;94.21;102517.69;4899823;29;20423;-70
2022/10/07 00:58:00;;;;;;;13.25;4.70;;;;;;;7.54;94.15;102521.19;4902403;29;20131;-70
2022/10/07 01:00:25;;;;;;;19.70;4.10;;;;;;;7.52;94.18;102515.28;4884736;29;20039;-71
2022/10/07 01:02:52;;;;;;;22.60;4.03;;;;;;;7.50;94.32;102508.59;4902206;29;20124;-70
2022/10/07 01:05:18;;;;;;;9.60;3.78;;;;;;;7.46;94.35;102512.25;4894071;29;20479;-71
2022/10/07 01:07:46;;;;;;;12.57;3.80;;;;;;;7.41;94.53;102509.97;4887663;29;20047;-71
2022/10/07 01:10:14;;;;;;;10.98;4.15;;;;;;;7.40;94.89;102501.41;4886408;29;20043;-71
2022/10/07 01:12:58;;;;;;;10.70;3.50;;;;;;;7.39;94.86;102501.50;4898688;29;20267;-71
2022/10/07 01:15:38;;;;;;;11.45;4.30;;;;;;;7.38;94.91;102497.22;4891930;29;20028;-71
2022/10/07 01:18:09;;;;;;;12.57;3.20;;;;;;;7.38;94.79;102489.50;4895431;29;20048;-71
2022/10/07 01:21:03;;;;;;;16.15;4.03;;;;;;;7.37;94.96;102491.25;4894251;29;20036;-70
2022/10/07 01:23:39;;;;;;;;;;;;;;;7.37;95.11;102493.84;4892132;29;20028;-70
2022/10/07 01:26:14;;;;;;;16.52;3.88;;;;;;;7.34;94.96;102485.44;4878007;29;19923;-71
2022/10/07 01:28:42;;;;;;;12.38;3.78;;;;;;;7.30;95.29;102482.22;4890164;29;20086;-70
2022/10/07 01:31:11;;;;;;;12.20;2.67;;;;;;;7.28;95.27;102484.06;4910115;29;20392;-71
2022/10/07 01:33:39;;;;;;;10.70;3.47;;;;;;;7.22;95.44;102477.53;4907450;29;20371;-70
2022/10/07 01:36:12;;;;;;;11.27;3.50;;;;;;;7.20;95.65;102473.41;4895142;29;20043;-70
2022/10/07 01:38:44;;;;;;;13.88;3.90;;;;;;;7.19;96.07;102469.13;4895748;29;20036;-71
2022/10/07 01:41:18;;;;;;;12.40;3.58;;;;;;;7.17;96.01;102474.38;4883981;29;20065;-71
2022/10/07 01:43:46;;;;;;;14.85;3.67;;;;;;;7.15;96.15;102467.66;4891390;29;20024;-70
2022/10/07 01:46:20;;;;;;;12.05;3.13;;;;;;;7.10;96.32;102461.97;4876921;29;20047;-71
2022/10/07 01:48:46;;;;;;;12.82;3.53;;;;;;;7.08;96.35;102458.63;4891719;29;20032;-71
2022/10/07 01:51:15;;;;;;;11.20;3.42;;;;;;;7.06;96.60;102456.16;4888079;29;20047;-70
2022/10/07 01:54:01;;;;;;;11.32;4.03;;;;;;;7.08;96.50;102456.06;4893204;29;20417;-71
2022/10/07 01:56:58;;;;;;;15.13;4.07;;;;;;;7.09;96.91;102455.16;4892533;29;20179;-70
2022/10/07 02:00:04;;;;;;;20.63;4.03;;;;;;;7.07;96.63;102450.09;4891943;29;20040;-71
2022/10/07 02:02:52;;;;;;;14.10;3.78;;;;;;;7.05;97.40;102445.94;4888974;29;20150;-71
2022/10/07 02:05:37;;;;;;;15.27;3.83;;;;;;;7.03;97.63;102448.63;4893281;29;20677;-71
2022/10/07 02:08:21;;;;;;;14.77;3.00;;;;;;;7.04;97.73;102454.59;4879184;29;20036;-71
2022/10/07 02:10:59;;;;;;;18.20;4.07;;;;;;;6.99;98.05;102439.41;4900991;29;20036;-71
2022/10/07 02:13:39;;;;;;;11.15;3.70;;;;;;;6.96;98.00;102431.84;4896294;29;20036;-71
2022/10/07 02:16:18;;;;;;;17.35;4.00;;;;;;;6.91;98.34;102433.88;4903340;29;20033;-70
2022/10/07 02:18:48;;;;;;;18.02;4.07;;;;;;;6.87;98.39;102427.25;4869887;29;20032;-70
2022/10/07 02:21:17;;;;;;;20.90;4.18;;;;;;;6.87;98.66;102424.66;4891380;29;20541;-70
2022/10/07 02:23:45;;;;;;;16.50;4.38;;;;;;;6.87;98.76;102412.59;4894029;29;20036;-71
2022/10/07 02:26:14;;;;;;;16.83;4.10;;;;;;;6.88;98.95;102414.25;4893597;29;20032;-71
2022/10/07 02:28:42;;;;;;;12.93;3.83;;;;;;;6.86;98.33;102408.38;4901745;29;20047;-70
2022/10/07 02:31:13;;;;;;;12.52;4.03;;;;;;;6.85;98.50;102411.84;4889873;29;20450;-71
2022/10/07 02:33:40;;;;;;;13.50;4.00;;;;;;;6.79;98.45;102410.47;4877842;29;20482;-70
2022/10/07 02:36:11;;;;;;;8.02;3.60;;;;;;;6.77;98.54;102402.00;4907908;29;20528;-71
2022/10/07 02:38:38;;;;;;;12.98;3.45;;;;;;;6.75;98.20;102401.25;4894239;29;20123;-71
2022/10/07 02:41:12;;;;;;;14.85;3.70;;;;;;;6.76;98.61;102394.34;4873270;29;20040;-70
2022/10/07 02:43:46;;;;;;;13.07;3.25;;;;;;;6.75;98.66;102400.44;4887530;29;20457;-70
2022/10/07 02:46:18;;;;;;;11.95;3.78;;;;;;;6.76;98.51;102397.78;4890282;29;20098;-71
2022/10/07 02:48:56;;;;;;;14.50;4.63;;;;;;;6.77;98.06;102402.00;4891091;29;20059;-71
2022/10/07 02:51:32;;;;;;;10.25;3.92;;;;;;;6.78;98.04;102395.09;4889258;29;20035;-71
2022/10/07 02:54:01;;;;;;;12.43;3.85;;;;;;;6.75;97.72;102398.69;4900190;29;20293;-70
2022/10/07 02:56:29;;;;;;;10.50;3.85;;;;;;;6.73;97.57;102397.94;4888565;29;20441;-71
2022/10/07 02:58:58;;;;;;;10.13;3.97;;;;;;;6.71;97.16;102393.81;4890197;29;20048;-70
2022/10/07 03:01:30;;;;;;;13.85;3.30;;;;;;;6.69;97.04;102390.50;4882960;29;20040;-71
2022/10/07 03:03:56;;;;;;;14.10;3.92;;;;;;;6.69;97.12;102387.94;4904545;29;20035;-70
2022/10/07 03:06:24;;;;;;;15.90;3.45;;;;;;;6.69;97.03;102386.16;4888058;29;20036;-70
2022/10/07 03:08:51;;;;;;;9.00;2.80;;;;;;;6.68;96.88;102384.50;4889090;29;20067;-70
2022/10/07 03:11:17;;;;;;;9.82;3.03;;;;;;;6.68;97.13;102375.94;4892350;29;20063;-70
2022/10/07 03:13:44;;;;;;;12.90;3.80;;;;;;;6.62;97.05;102375.38;4891513;29;20087;-70
2022/10/07 03:16:10;;;;;;;10.02;3.00;;;;;;;6.66;97.52;102370.06;4902851;29;20032;-70
2022/10/07 03:18:37;;;;;;;25.17;3.38;;;;;;;6.65;97.74;102364.09;4872530;29;20067;-70
2022/10/07 03:21:19;;;;;;;12.43;3.65;;;;;;;6.68;98.09;102366.44;4885442;29;20036;-70
2022/10/07 03:23:51;;;;;;;15.45;3.53;;;;;;;6.56;98.63;102365.44;4893307;29;20032;-70
2022/10/07 03:26:18;;;;;;;25.95;5.88;;;;;;;6.52;99.45;102363.16;4890224;29;20071;-70
2022/10/07 03:28:45;;;;;;;13.10;2.35;;;;;;;6.42;100.00;102360.28;4891783;29;20047;-71
2022/10/07 03:31:14;;;;;;;16.38;3.88;;;;;;;6.46;100.00;102364.34;4890621;29;20059;-70
2022/10/07 03:33:44;;;;;;;11.85;2.55;;;;;;;6.37;100.00;102370.03;4878824;29;20127;-70
2022/10/07 03:36:11;;;;;;;14.95;3.03;;;;;;;6.37;100.00;102359.75;4887590;29;20032;-70
2022/10/07 03:38:39;;;;;;;11.00;3.22;;;;;;;6.38;100.00;102359.63;4875337;29;20043;-70
2022/10/07 03:41:05;;;;;;;13.75;2.78;;;;;;;6.42;100.00;102355.13;4872865;29;20044;-70
2022/10/07 03:43:32;;;;;;;15.57;3.13;;;;;;;6.39;100.00;102357.91;4887358;29;20041;-70
2022/10/07 03:46:01;;;;;;;11.10;3.10;;;;;;;6.32;100.00;102348.88;4903792;29;20056;-71
2022/10/07 03:48:31;;;;;;;12.38;2.60;;;;;;;6.30;100.00;102348.13;4888034;29;20032;-70
2022/10/07 03:50:57;;;;;;;10.07;2.67;;;;;;;6.31;100.00;102349.78;4890686;29;20517;-70
2022/10/07 03:53:28;;;;;;;16.00;3.55;;;;;;;6.31;100.00;102347.19;4890239;29;20147;-70
2022/10/07 03:55:54;;;;;;;13.73;3.60;;;;;;;6.29;100.00;102360.19;4873829;29;20041;-70
2022/10/07 03:58:20;;;;;;;13.27;3.38;;;;;;;6.35;100.00;102359.00;4900661;29;20050;-70
2022/10/07 04:00:46;;;;;;;12.50;2.88;;;;;;;6.29;100.00;102351.59;4886888;29;20028;-70
2022/10/07 04:03:14;;;;;;;12.82;3.90;;;;;;;6.31;100.00;102345.47;4889337;29;20084;-70
2022/10/07 04:05:40;;;;;;;12.63;3.35;;;;;;;6.24;100.00;102351.91;4889611;29;20051;-71
2022/10/07 04:08:05;;;;;;;8.68;2.70;;;;;;;6.21;100.00;102347.72;4871585;29;20033;-70
2022/10/07 04:10:32;;;;;;;6.80;3.13;;;;;;;6.20;100.00;102340.94;4890023;29;20091;-71
2022/10/07 04:12:57;;;;;;;20.15;3.20;;;;;;;6.19;100.00;102344.41;4889835;29;20036;-70
2022/10/07 04:15:23;;;;;;;14.00;3.33;;;;;;;6.20;100.00;102335.78;4889646;29;20028;-71
2022/10/07 04:17:56;;;;;;;6.55;2.40;;;;;;;6.20;100.00;102342.69;4903004;29;20114;-71
2022/10/07 04:20:22;;;;;;;10.98;3.25;;;;;;;6.19;100.00;102343.59;4889589;29;20052;-70
2022/10/07 04:22:47;;;;;;;13.32;2.97;;;;;;;6.18;100.00;102342.78;4889737;29;20039;-71
2022/10/07 04:28:01;;;;;;;16.58;3.05;;;;;;;6.24;100.00;102326.13;4890176;29;20044;-71
2022/10/07 04:30:32;;;;;;;17.52;3.10;;;;;;;6.35;100.00;102333.25;4890254;29;20059;-70
2022/10/07 04:32:58;;;;;;;11.48;3.58;;;;;;;6.23;100.00;102332.19;4880448;29;20649;-70
2022/10/07 04:35:24;;;;;;;11.77;2.60;;;;;;;6.19;100.00;102334.13;4888717;29;20056;-70
2022/10/07 04:37:52;;;;;;;8.77;2.67;;;;;;;6.14;100.00;102320.69;4894311;29;20052;-70
2022/10/07 04:40:22;;;;;;;13.07;3.05;;;;;;;6.13;100.00;102323.34;4890991;29;20048;-70
2022/10/07 04:45:36;;;;;;;10.68;2.88;;;;;;;6.12;100.00;102317.38;4894336;29;20116;-71
2022/10/07 04:48:06;;;;;;;8.18;2.63;;;;;;;6.13;100.00;102319.03;4904064;29;20036;-70
2022/10/07 04:50:37;;;;;;;9.15;2.63;;;;;;;6.16;100.00;102310.28;4892427;29;20028;-70
2022/10/07 04:53:13;;;;;;;15.18;3.10;;;;;;;6.11;100.00;102326.03;4887536;29;20035;-70
2022/10/07 04:55:41;;;;;;;11.00;2.60;;;;;;;6.04;100.00;102320.38;4885640;29;20795;-71
2022/10/07 04:58:07;;;;;;;7.03;3.15;;;;;;;6.01;100.00;102312.03;4875357;29;20032;-71
2022/10/07 05:00:34;;;;;;;7.30;2.33;;;;;;;5.97;100.00;102313.97;4892076;29;20039;-70
2022/10/07 05:03:00;;;;;;;6.07;2.50;;;;;;;5.97;100.00;102315.69;4901239;29;20048;-71
2022/10/07 05:05:26;;;;;;;13.75;2.90;;;;;;;6.07;100.00;102316.00;4906134;29;20034;-70
2022/10/07 05:07:53;;;;;;;8.82;2.70;;;;;;;5.99;100.00;102309.53;4893433;29;20028;-70
2022/10/07 05:10:20;;;;;;;14.30;3.88;;;;;;;5.99;100.00;102309.53;4875695;29;20036;-71
2022/10/07 05:12:46;;;;;;;11.18;3.55;;;;;;;5.98;100.00;102310.44;4904808;29;20032;-70
2022/10/07 05:15:12;;;;;;;9.10;2.95;;;;;;;6.01;100.00;102304.31;4893318;29;20450;-70
2022/10/07 05:17:41;;;;;;;17.25;3.28;;;;;;;6.03;100.00;102302.47;4890774;29;20056;-70
2022/10/07 05:20:08;;;;;;;11.50;2.88;;;;;;;5.93;100.00;102307.28;4893367;29;20532;-71
2022/10/07 05:22:35;;;;;;;12.18;2.83;;;;;;;5.90;100.00;102297.16;4881801;29;20041;-70
2022/10/07 05:25:01;;;;;;;9.38;2.95;;;;;;;5.92;100.00;102302.22;4896128;29;20041;-70
2022/10/07 05:27:27;;;;;;;12.45;3.10;;;;;;;5.93;100.00;102302.13;4904392;29;20072;-71
2022/10/07 05:29:52;;;;;;;18.52;2.53;;;;;;;5.90;100.00;102296.34;4889808;29;20020;-71
2022/10/07 05:32:20;;;;;;;21.25;3.83;;;;;;;5.89;100.00;102295.50;4899193;29;20040;-70
2022/10/07 05:34:46;;;;;;;18.15;4.10;;;;;;;5.88;100.00;102295.56;4890055;29;20573;-70
2022/10/07 05:37:14;;;;;;;10.73;3.30;;;;;;;5.90;100.00;102286.03;4870259;29;20028;-72
2022/10/07 05:39:40;;;;;;;16.00;3.72;;;;;;;5.90;100.00;102293.78;4887301;29;20047;-71
2022/10/07 05:42:12;;;;;;;11.47;3.00;;;;;;;5.96;100.00;102296.00;4910150;29;20152;-70
2022/10/07 05:44:42;;;;;;;11.55;2.55;;;;;;;5.98;100.00;102297.56;4885668;29;20456;-70
2022/10/07 05:47:10;;;;;;;15.55;2.92;;;;;;;5.91;100.00;102287.69;4890291;29;20032;-70
2022/10/07 05:49:35;;;;;;;12.98;2.92;;;;;;;5.90;100.00;102286.88;4875374;29;20638;-70
2022/10/07 05:52:02;;;;;;;12.30;2.70;;;;;;;5.85;100.00;102286.28;4908496;29;20516;-70
2022/10/07 05:54:29;;;;;;;11.52;3.20;;;;;;;5.84;100.00;102285.47;4890355;29;20476;-72
2022/10/07 05:56:56;;;;;;;16.02;3.70;;;;;;;5.83;100.00;102285.56;4887024;29;20036;-73
2022/10/07 05:59:22;;;;;;;8.43;3.28;;;;;;;5.86;100.00;102287.97;4888612;29;20036;-73
2022/10/07 06:01:48;;;;;;;18.05;4.07;;;;;;;5.85;100.00;102288.88;4888419;29;20029;-73
2022/10/07 06:04:18;;;;;;;12.75;3.53;;;;;;;5.86;100.00;102282.81;4891079;29;20362;-72
2022/10/07 06:06:46;;;;;;;17.17;3.08;;;;;;;5.85;100.00;102289.69;4906657;29;21046;-72
2022/10/07 06:15:08;;;;;;;12.40;2.78;;;;;;;6.00;100.00;102279.47;4838014;29;20047;-72
2022/10/07 06:17:35;;;;;;;14.80;3.15;;;;;;;6.01;100.00;102279.38;4876834;29;20041;-72
2022/10/07 06:20:04;;;;;;;15.30;3.13;;;;;;;5.99;100.00;102276.06;4919702;29;20894;-72
2022/10/07 06:22:30;;;;;;;18.23;3.75;;;;;;;6.04;100.00;102284.31;4900733;29;20092;-72
2022/10/07 06:24:57;;;;;;;12.38;4.50;;;;;;;6.06;100.00;102270.53;4889834;29;20071;-72
2022/10/07 06:27:23;;;;;;;15.38;3.47;;;;;;;6.02;100.00;102275.03;4874203;29;20038;-72
2022/10/07 06:29:49;;;;;;;13.38;4.68;;;;;;;6.07;100.00;102275.63;4875827;29;20036;-73
2022/10/07 06:32:15;;;;;;;16.58;3.70;;;;;;;6.17;100.00;102279.28;4890855;29;20090;-73
2022/10/07 06:34:43;;;;;;;19.98;4.13;;;;;;;6.23;100.00;102281.53;4892130;29;20041;-73
2022/10/07 06:37:10;;;;;;;21.30;4.88;;;;;;;6.30;100.00;102270.84;4884568;29;20412;-73
2022/10/07 06:39:35;;;;;;;16.80;4.10;;;;;;;6.27;100.00;102279.56;4872783;29;20028;-73
2022/10/07 06:42:01;;;;;;;18.52;4.18;;;;;;;6.34;100.00;102275.69;4896182;29;20039;-73
2022/10/07 06:44:38;;;;;;;15.45;3.97;;;;;;;6.46;100.00;102278.47;4882326;29;20205;-73
2022/10/07 06:47:06;;;;;;;14.48;4.80;;;;;;;6.63;100.00;102273.94;4888765;29;20036;-73
2022/10/07 06:49:31;;;;;;;12.60;3.90;;;;;;;6.89;100.00;102271.47;4878506;29;20131;-73
2022/10/07 06:51:58;;;;;;;13.45;3.38;;;;;;;7.24;100.00;102270.19;4875707;29;20123;-73
2022/10/07 06:54:24;;;;;;;13.57;3.00;;;;;;;7.62;98.68;102272.06;4921911;29;20505;-73
2022/10/07 06:56:49;;;;;;;17.77;3.05;;;;;;;7.92;96.67;102267.41;4897215;29;20028;-73
2022/10/07 06:59:15;;;;;;;12.90;2.90;;;;;;;8.30;94.62;102266.56;4889665;29;20040;-70
2022/10/07 07:02:09;;;;;;;12.63;3.08;;;;;;;8.82;90.79;102275.09;4902758;29;20036;-70
2022/10/07 07:04:34;;;;;;;7.97;3.03;;;;;;;9.32;87.83;102273.22;4887954;29;20037;-70
2022/10/07 07:07:01;;;;;;;13.35;2.72;;;;;;;9.53;84.53;102275.16;4892805;29;20052;-70
2022/10/07 07:09:26;;;;;;;16.02;3.00;;;;;;;9.91;83.84;102274.09;4903304;29;20090;-71
2022/10/07 07:11:53;;;;;;;10.77;2.58;;;;;;;10.23;81.26;102281.19;4900386;29;20040;-70
2022/10/07 07:14:22;;;;;;;19.92;2.75;;;;;;;10.27;80.61;102265.28;4890165;29;20040;-70
2022/10/07 07:16:54;;;;;;;13.07;2.47;;;;;;;10.52;80.05;102266.00;4890200;29;20032;-71
2022/10/07 07:19:22;;;;;;;10.70;2.72;;;;;;;10.84;78.58;102255.66;4887789;29;20040;-70
2022/10/07 07:21:48;;;;;;;10.35;2.92;;;;;;;11.23;77.22;102248.22;4886474;29;20545;-70
2022/10/07 07:24:15;;;;;;;13.85;2.75;;;;;;;11.33;75.71;102252.66;4889192;29;20076;-71
2022/10/07 07:26:42;;;;;;;14.13;3.10;;;;;;;11.52;75.14;102252.78;4890011;29;20123;-70
2022/10/07 07:29:11;;;;;;;13.52;3.30;;;;;;;11.80;75.10;102255.69;4884669;29;20041;-71
2022/10/07 07:31:43;;;;;;;12.13;2.80;;;;;;;12.08;73.43;102249.84;4887780;29;20040;-70
2022/10/07 07:34:12;;;;;;;10.38;3.00;;;;;;;12.39;73.90;102249.78;4881508;29;20394;-70
2022/10/07 07:36:46;;;;;;;12.15;3.15;;;;;;;12.67;72.19;102247.41;4917029;29;20029;-70
2022/10/07 07:39:16;;;;;;;13.82;2.67;;;;;;;12.86;72.08;102241.41;4887407;29;20039;-70
2022/10/07 07:41:49;;;;;;;13.50;3.38;;;;;;;12.76;72.27;102243.19;4890249;29;20609;-71
2022/10/07 07:44:17;;;;;;;15.23;3.67;;;;;;;13.00;70.63;102241.00;4870525;29;20438;-71
2022/10/07 07:46:47;;;;;;;10.88;3.05;;;;;;;13.28;70.97;102235.94;4891197;29;20044;-71
2022/10/07 07:49:14;;;;;;;12.60;2.80;;;;;;;13.18;69.56;102241.13;4889974;29;20046;-71
2022/10/07 07:51:42;;;;;;;14.38;3.42;;;;;;;13.08;69.57;102237.72;4879983;29;20041;-72
2022/10/07 07:54:11;;;;;;;16.10;3.03;;;;;;;13.18;69.83;102240.31;4892002;29;20035;-71
2022/10/07 07:56:38;;;;;;;19.17;3.17;;;;;;;13.34;69.54;102224.97;4891555;29;20609;-71
2022/10/07 07:59:04;;;;;;;19.33;3.47;;;;;;;13.70;69.36;102235.59;4868960;29;20076;-72
2022/10/07 08:01:31;;;;;;;22.83;3.25;;;;;;;14.11;68.94;102238.75;4887281;29;20044;-71
2022/10/07 08:03:57;;;;;;;17.70;2.95;;;;;;;14.55;66.88;102236.28;4888492;29;20394;-72
2022/10/07 08:06:26;;;;;;;11.77;3.03;;;;;;;14.31;66.39;102233.41;4891675;29;20032;-71
2022/10/07 08:08:56;;;;;;;15.68;3.10;;;;;;;14.27;66.77;102229.47;4890570;29;20035;-72
2022/10/07 08:11:22;;;;;;;11.68;2.70;;;;;;;14.40;66.31;102232.56;4894060;29;20028;-72
2022/10/07 08:13:47;;;;;;;21.30;2.80;;;;;;;14.45;66.41;102235.53;4908058;29;20207;-73
2022/10/07 08:16:17;;;;;;;10.25;2.85;;;;;;;14.60;65.70;102226.28;4893596;29;20067;-72
2022/10/07 08:18:46;;;;;;;11.00;2.72;;;;;;;15.02;65.08;102229.25;4895824;29;20090;-72
2022/10/07 08:21:13;;;;;;;11.45;2.92;;;;;;;15.25;65.06;102219.16;4879168;29;20509;-73
2022/10/07 08:23:39;;;;;;;15.43;3.10;;;;;;;15.37;64.39;102220.56;4904926;29;20032;-74
2022/10/07 08:26:07;;;;;;;20.23;2.95;;;;;;;15.74;63.88;102222.09;4873180;29;20578;-72
2022/10/07 08:28:33;;;;;;;10.13;3.03;;;;;;;16.01;62.31;102215.88;4880467;29;20084;-71
2022/10/07 08:31:05;;;;;;;11.43;2.25;;;;;;;16.27;63.22;102214.97;4894818;29;20569;-71
2022/10/07 08:33:33;;;;;;;13.07;2.00;;;;;;;16.60;62.58;102207.19;4897167;29;20444;-71
2022/10/07 08:36:01;;;;;;;10.95;3.30;;;;;;;16.92;62.32;102202.00;4889596;29;20457;-71
2022/10/07 08:38:31;;;;;;;10.10;2.13;;;;;;;17.22;60.61;102204.94;4902333;29;20040;-71
2022/10/07 08:41:08;;;;;;;12.15;2.83;;;;;;;17.23;59.49;102198.69;4887891;29;20047;-71
2022/10/07 08:43:43;;;;;;;16.38;2.40;;;;;;;17.37;59.67;102202.44;4907117;29;20067;-71
2022/10/07 08:46:14;;;;;;;9.57;2.38;;;;;;;17.28;58.51;102201.63;4881309;29;20052;-72
2022/10/07 08:48:41;;;;;;;14.73;2.55;;;;;;;17.47;59.14;102197.81;4906736;29;20043;-72
2022/10/07 08:51:20;;;;;;;12.82;2.30;;;;;;;17.61;58.00;102198.09;4900585;29;20490;-72
2022/10/07 08:53:49;;;;;;;10.85;2.03;;;;;;;17.59;57.92;102198.28;4902234;29;20163;-71
2022/10/07 08:56:22;;;;;;;16.60;2.20;;;;;;;17.42;58.31;102184.41;4905957;29;20036;-73
2022/10/07 08:59:11;;;;;;;16.63;2.33;;;;;;;17.74;58.64;102184.47;4900843;29;20046;-72
2022/10/07 09:01:52;;;;;;;15.57;2.83;;;;;;;17.69;57.81;102167.44;4905242;29;20527;-72
2022/10/07 09:04:41;;;;;;;12.55;2.25;;;;;;;17.54;59.28;102169.13;4901111;29;20060;-73
2022/10/07 09:07:24;;;;;;;12.52;2.85;;;;;;;17.25;59.45;102167.06;4883484;29;20037;-72
2022/10/07 09:09:55;;;;;;;14.98;3.22;;;;;;;16.88;62.70;102178.91;4886797;29;20025;-72
2022/10/07 09:12:33;;;;;;;9.27;2.00;;;;;;;16.92;61.29;102165.31;4887752;29;20123;-72
2022/10/07 09:15:02;;;;;;;12.50;2.22;;;;;;;16.80;62.69;102161.38;4904578;29;20948;-73
2022/10/07 09:17:42;;;;;;;9.38;2.50;;;;;;;16.70;60.63;102156.28;4894218;29;20067;-73
2022/10/07 09:20:16;;;;;;;17.55;2.05;;;;;;;16.81;63.53;102155.13;4900660;29;20415;-72
2022/10/07 09:22:47;;;;;;;10.48;2.20;;;;;;;16.72;61.26;102148.25;4906864;29;20067;-72
2022/10/07 09:25:28;;;;;;;10.63;2.55;;;;;;;16.71;62.15;102144.03;4900879;29;20028;-73
2022/10/07 09:27:53;;;;;;;13.20;2.40;;;;;;;16.74;62.80;102141.06;4893117;29;20036;-73
2022/10/07 09:30:26;;;;;;;15.30;2.25;;;;;;;16.79;61.15;102137.97;4902041;29;20107;-73
2022/10/07 09:32:54;;;;;;;12.27;2.22;;;;;;;16.85;61.56;102137.31;4888461;29;20032;-73
2022/10/07 09:35:25;;;;;;;9.68;1.90;;;;;;;16.70;62.47;102137.94;4889966;29;20032;-72
2022/10/07 09:38:02;;;;;;;9.60;2.00;;;;;;;16.72;62.28;102130.75;4889362;29;20058;-73
2022/10/07 09:40:28;;;;;;;10.68;2.05;;;;;;;16.77;63.12;102132.88;4900834;29;20064;-73
2022/10/07 09:42:53;;;;;;;10.43;2.00;;;;;;;16.84;63.05;102139.13;4891136;29;20119;-74
2022/10/07 09:45:30;;;;;;;11.27;2.05;;;;;;;16.78;62.62;102133.69;4903058;29;20516;-73
2022/10/07 09:47:59;;;;;;;10.18;2.20;;;;;;;16.54;61.57;102127.50;4885877;29;20442;-73
2022/10/07 09:50:28;;;;;;;12.38;2.40;;;;;;;16.51;62.35;102128.63;4887668;29;20032;-74
2022/10/07 09:52:56;;;;;;;14.23;1.90;;;;;;;16.45;63.11;102126.66;4900975;29;20036;-74
2022/10/07 09:55:42;;;;;;;19.30;2.85;;;;;;;16.49;63.61;102122.72;4899747;29;20032;-73
2022/10/07 09:58:25;;;;;;;9.50;1.63;;;;;;;16.59;64.24;102117.31;4888811;29;20042;-73
2022/10/07 10:00:53;;;;;;;9.90;1.65;;;;;;;16.52;63.40;102114.56;4904193;29;20123;-74
2022/10/07 10:03:19;;;;;;;15.88;2.53;;;;;;;16.59;64.75;102112.09;4902657;29;20060;-73
2022/10/07 10:05:56;;;;;;;10.02;1.90;;;;;;;16.76;62.70;102102.41;4892623;29;20036;-74
2022/10/07 10:08:32;;;;;;;12.82;1.73;;;;;;;16.72;63.54;102098.50;4891285;29;20043;-74
2022/10/07 10:11:04;;;;;;;13.35;3.08;;;;;;;16.75;61.74;102103.41;4901514;29;20036;-74
2022/10/07 10:13:37;;;;;;;12.47;1.63;;;;;;;16.67;61.76;102106.03;4903783;29;20036;-74
2022/10/07 10:16:05;;;;;;;12.70;1.80;;;;;;;16.60;61.69;102103.25;4902685;29;20040;-75
2022/10/07 10:18:33;;;;;;;10.48;2.20;;;;;;;16.57;62.67;102102.75;4877609;29;20111;-74
2022/10/07 10:21:19;;;;;;;12.13;2.40;;;;;;;16.54;62.49;102088.22;4906059;29;21101;-74
2022/10/07 10:23:51;;;;;;;13.35;2.22;;;;;;;16.58;62.83;102083.47;4891444;29;20028;-74
2022/10/07 10:26:52;;;;;;;13.63;1.98;;;;;;;16.77;62.81;102084.94;4903909;29;20040;-73
2022/10/07 10:29:36;;;;;;;14.23;2.38;;;;;;;16.89;61.84;102078.38;4888442;29;20135;-75
2022/10/07 10:32:29;;;;;;;14.98;2.22;;;;;;;16.86;61.18;102076.09;4890386;29;20044;-74
2022/10/07 10:35:17;;;;;;;8.15;2.00;;;;;;;16.84;60.39;102070.19;4899746;29;20474;-75
2022/10/07 10:38:11;;;;;;;15.10;2.78;;;;;;;17.01;59.86;102073.59;4889915;29;20497;-74
2022/10/07 10:40:41;;;;;;;11.82;1.55;;;;;;;16.96;59.98;102068.06;4904725;29;20481;-74
2022/10/07 10:43:12;;;;;;;12.45;1.75;;;;;;;16.91;59.50;102071.16;4902306;29;20048;-74
2022/10/07 10:46:04;;;;;;;19.92;2.65;;;;;;;17.12;59.85;102062.75;4899818;29;20428;-75
2022/10/07 10:48:37;;;;;;;13.57;2.30;;;;;;;17.02;59.84;102055.09;4904438;29;20450;-75
2022/10/07 10:51:32;;;;;;;14.07;2.13;;;;;;;16.89;58.94;102057.41;4885412;29;20032;-76
2022/10/07 10:54:23;;;;;;;12.20;1.52;;;;;;;17.05;59.57;102048.72;4870921;29;20104;-74
2022/10/07 10:57:20;;;;;;;16.77;2.10;;;;;;;17.33;58.34;102046.47;4888163;29;20044;-74
2022/10/07 11:00:10;;;;;;;12.85;1.90;;;;;;;17.29;59.17;102034.69;4890683;29;20174;-74
2022/10/07 11:02:39;;;;;;;13.65;2.58;;;;;;;17.45;57.91;102039.06;4902157;29;20043;-74
2022/10/07 11:05:16;;;;;;;15.30;3.00;;;;;;;17.43;58.11;102028.72;4888331;29;20039;-73
2022/10/07 11:07:52;;;;;;;13.25;2.53;;;;;;;17.51;57.33;102030.50;4890589;29;20470;-72
2022/10/07 11:10:53;;;;;;;12.45;2.53;;;;;;;17.37;59.29;102026.00;4888932;29;20047;-74
2022/10/07 11:13:42;;;;;;;14.73;3.17;;;;;;;17.23;58.06;102015.22;4880598;29;20048;-73
2022/10/07 11:16:29;;;;;;;12.95;1.67;;;;;;;17.25;56.69;102008.03;4883264;29;20040;-74
2022/10/07 11:19:04;;;;;;;13.68;1.75;;;;;;;17.52;54.36;101998.06;4899081;29;20037;-73
2022/10/07 11:21:37;;;;;;;11.73;1.98;;;;;;;17.46;55.38;101996.94;4900789;29;20664;-72
2022/10/07 11:24:13;;;;;;;12.70;1.55;;;;;;;17.35;55.13;101994.69;4901670;29;20060;-73
2022/10/07 11:27:10;;;;;;;13.88;2.45;;;;;;;17.34;57.02;101992.25;4874781;29;20036;-73
2022/10/07 11:29:42;;;;;;;14.18;2.30;;;;;;;17.35;57.22;101988.63;4889918;29;20032;-72
2022/10/07 11:32:12;;;;;;;9.27;1.63;;;;;;;17.20;57.14;101981.50;4912020;29;20059;-72
2022/10/07 11:34:48;;;;;;;14.13;2.45;;;;;;;17.28;57.07;101978.03;4908808;29;20127;-72
2022/10/07 11:37:23;;;;;;;12.10;1.83;;;;;;;17.15;57.31;101969.91;4905493;29;20500;-72
2022/10/07 11:39:52;;;;;;;18.42;2.67;;;;;;;17.24;57.55;101959.19;4903512;29;20090;-73
2022/10/07 11:42:23;;;;;;;17.23;2.03;;;;;;;17.40;57.34;101963.53;4908211;29;20118;-74
2022/10/07 11:45:00;;;;;;;12.68;1.77;;;;;;;17.36;56.02;101957.00;4890765;29;20127;-76
2022/10/07 11:47:52;;;;;;;11.70;1.85;;;;;;;17.44;57.14;101949.09;4904918;29;20069;-73
2022/10/07 11:50:31;;;;;;;11.80;1.42;;;;;;;17.52;56.04;101953.47;4887485;29;21018;-74
2022/10/07 11:53:04;;;;;;;11.35;1.95;;;;;;;17.50;55.47;101937.09;4892040;29;20045;-74